createdAt,value
2019-02-04T00:00:31.270Z,65.04
2019-02-04T00:03:00.970Z,65.15
2019-02-04T00:05:29.448Z,66.20
2019-02-04T00:07:57.729Z,65.37
2019-02-04T00:10:26.130Z,65.03
2019-02-04T00:12:54.538Z,64.80
2019-02-04T00:15:22.904Z,64.42
2019-02-04T00:17:51.389Z,64.35
2019-02-04T00:20:20.277Z,64.28
2019-02-04T00:22:48.731Z,64.81
2019-02-04T00:25:17.117Z,64.44
2019-02-04T00:27:46.091Z,65.24
2019-02-04T00:30:17.711Z,65.79
2019-02-04T00:32:46.254Z,65.52
2019-02-04T00:35:14.582Z,66.34
2019-02-04T00:37:42.981Z,66.09
2019-02-04T00:40:19.095Z,64.95
2019-02-04T00:42:47.670Z,64.79
2019-02-04T00:45:15.985Z,64.79
2019-02-04T00:47:44.302Z,64.87
2019-02-04T00:50:21.621Z,65.09
2019-02-04T00:52:50.310Z,65.41
2019-02-04T00:55:19.288Z,65.33
2019-02-04T00:57:47.905Z,65.00
2019-02-04T01:00:26.751Z,65.39
2019-02-04T01:02:55.155Z,65.23
2019-02-04T01:05:23.777Z,65.60
2019-02-04T01:07:52.463Z,65.35
2019-02-04T01:10:23.325Z,65.09
2019-02-04T01:12:51.682Z,65.01
2019-02-04T01:15:20.079Z,65.07
2019-02-04T01:17:48.444Z,64.50
2019-02-04T01:20:23.102Z,64.26
2019-02-04T01:22:52.503Z,63.81
2019-02-04T01:25:21.313Z,64.14
2019-02-04T01:27:49.718Z,64.61
2019-02-04T01:30:20.536Z,65.14
2019-02-04T01:32:49.441Z,65.08
2019-02-04T01:35:17.740Z,65.26
2019-02-04T01:37:46.434Z,65.01
2019-02-04T01:40:20.763Z,64.90
2019-02-04T01:42:49.538Z,65.46
2019-02-04T01:45:17.866Z,65.55
2019-02-04T01:47:46.539Z,65.19
2019-02-04T01:50:17.076Z,65.64
2019-02-04T01:52:45.499Z,66.08
2019-02-04T01:55:15.208Z,65.48
2019-02-04T01:57:45.165Z,65.77
2019-02-04T02:00:22.479Z,65.92
2019-02-04T02:02:50.979Z,65.85
2019-02-04T02:05:19.489Z,66.29
2019-02-04T02:07:47.882Z,65.96
2019-02-04T02:10:18.915Z,66.14
2019-02-04T02:12:47.326Z,65.91
2019-02-04T02:15:15.823Z,65.92
2019-02-04T02:17:44.343Z,66.10
2019-02-04T02:20:15.938Z,65.83
2019-02-04T02:22:44.285Z,66.04
2019-02-04T02:25:12.751Z,66.05
2019-02-04T02:27:41.046Z,66.13
2019-02-04T02:30:12.594Z,65.98
2019-02-04T02:32:41.564Z,66.54
2019-02-04T02:35:10.036Z,66.84
2019-02-04T02:37:38.333Z,67.11
2019-02-04T02:40:09.827Z,67.12
2019-02-04T02:42:39.311Z,67.82
2019-02-04T02:45:09.529Z,68.48
2019-02-04T02:47:38.758Z,68.43
2019-02-04T02:50:09.948Z,68.31
2019-02-04T02:52:38.463Z,68.03
2019-02-04T02:55:10.446Z,67.83
2019-02-04T02:57:38.814Z,67.61
2019-02-04T03:00:16.492Z,67.56
2019-02-04T03:02:44.917Z,67.57
2019-02-04T03:05:15.888Z,67.99
2019-02-04T03:07:44.250Z,68.61
2019-02-04T03:10:27.504Z,69.11
2019-02-04T03:12:56.854Z,68.72
2019-02-04T03:15:25.326Z,68.85
2019-02-04T03:17:53.727Z,68.70
2019-02-04T03:20:23.311Z,68.93
2019-02-04T03:22:51.618Z,68.94
2019-02-04T03:25:20.831Z,69.04
2019-02-04T03:27:50.826Z,69.37
2019-02-04T03:30:22.554Z,69.43
2019-02-04T03:32:51.484Z,69.20
2019-02-04T03:35:20.074Z,69.39
2019-02-04T03:37:48.550Z,69.15
2019-02-04T03:40:20.670Z,69.24
2019-02-04T03:42:49.141Z,69.21
2019-02-04T03:45:17.734Z,69.14
2019-02-04T03:47:47.478Z,69.17
2019-02-04T03:50:16.080Z,69.46
2019-02-04T03:52:44.568Z,69.08
2019-02-04T03:55:14.801Z,69.25
2019-02-04T03:57:43.539Z,69.20
2019-02-04T04:00:17.399Z,69.52
2019-02-04T04:02:46.125Z,69.36
2019-02-04T04:05:14.678Z,69.32
2019-02-04T04:07:44.406Z,69.06
2019-02-04T04:10:13.412Z,69.20
2019-02-04T04:12:41.755Z,69.16
2019-02-04T04:15:12.548Z,69.21
2019-02-04T04:17:41.145Z,69.19
2019-02-04T04:20:12.312Z,69.32
2019-02-04T04:22:41.847Z,69.49
2019-02-04T04:25:12.415Z,69.46
2019-02-04T04:27:40.773Z,69.09
2019-02-04T04:30:14.854Z,68.33
2019-02-04T04:32:43.285Z,67.98
2019-02-04T04:35:11.987Z,68.44
2019-02-04T04:37:40.406Z,68.54
2019-02-04T04:40:11.373Z,69.22
2019-02-04T04:42:39.791Z,69.46
2019-02-04T04:45:13.935Z,69.66
2019-02-04T04:47:43.234Z,69.75
2019-02-04T04:50:11.691Z,69.71
2019-02-04T04:52:39.999Z,70.31
2019-02-04T04:55:11.782Z,70.86
2019-02-04T04:57:40.110Z,71.20
2019-02-04T05:00:12.965Z,70.96
2019-02-04T05:02:41.728Z,70.69
2019-02-04T05:05:12.561Z,70.81
2019-02-04T05:07:40.996Z,70.67
2019-02-04T05:10:12.528Z,70.95
2019-02-04T05:12:40.813Z,70.91
2019-02-04T05:15:12.321Z,70.98
2019-02-04T05:17:40.613Z,71.17
2019-02-04T05:20:14.459Z,70.97
2019-02-04T05:22:42.750Z,71.10
2019-02-04T05:25:11.243Z,70.97
2019-02-04T05:27:39.668Z,70.84
2019-02-04T05:30:20.719Z,70.72
2019-02-04T05:32:49.159Z,70.30
2019-02-04T05:35:17.553Z,70.77
2019-02-04T05:37:45.868Z,71.04
2019-02-04T05:40:16.213Z,71.11
2019-02-04T05:42:45.033Z,70.88
2019-02-04T05:45:16.281Z,70.64
2019-02-04T05:47:44.648Z,71.12
2019-02-04T05:50:17.219Z,70.81
2019-02-04T05:52:45.349Z,71.28
2019-02-04T05:55:14.702Z,71.20
2019-02-04T05:57:43.202Z,71.44
2019-02-04T06:00:18.187Z,71.90
2019-02-04T06:02:46.586Z,72.03
2019-02-04T06:05:15.214Z,72.18
2019-02-04T06:07:44.571Z,72.23
2019-02-04T06:10:13.494Z,72.51
2019-02-04T06:12:42.088Z,72.38
2019-02-04T06:15:13.172Z,72.11
2019-02-04T06:17:41.531Z,72.19
2019-02-04T06:20:13.029Z,72.09
2019-02-04T06:22:41.369Z,72.18
2019-02-04T06:25:10.242Z,72.27
2019-02-04T06:27:38.814Z,72.22
2019-02-04T06:30:12.916Z,72.26
2019-02-04T06:32:41.303Z,72.04
2019-02-04T06:35:10.785Z,71.92
2019-02-04T06:37:39.291Z,71.54
2019-02-04T06:40:16.253Z,71.69
2019-02-04T06:42:44.840Z,71.96
2019-02-04T06:45:17.826Z,72.12
2019-02-04T06:47:46.493Z,71.41
2019-02-04T06:50:19.757Z,71.65
2019-02-04T06:52:48.209Z,71.70
2019-02-04T06:55:28.091Z,71.65
2019-02-04T06:57:56.484Z,71.04
2019-02-04T07:00:24.841Z,70.49
2019-02-04T07:02:53.424Z,70.68
2019-02-04T07:05:21.791Z,70.71
2019-02-04T07:07:50.147Z,70.98
2019-02-04T07:10:23.886Z,71.04
2019-02-04T07:12:52.295Z,70.68
2019-02-04T07:15:20.740Z,70.79
2019-02-04T07:17:49.060Z,70.54
2019-02-04T07:20:25.412Z,70.56
2019-02-04T07:22:54.074Z,71.12
2019-02-04T07:25:22.850Z,71.67
2019-02-04T07:27:51.232Z,71.67
2019-02-04T07:30:25.022Z,71.29
2019-02-04T07:32:53.694Z,70.96
2019-02-04T07:35:22.272Z,71.06
2019-02-04T07:37:50.895Z,70.75
2019-02-04T07:40:21.392Z,70.52
2019-02-04T07:42:51.022Z,70.39
2019-02-04T07:45:19.484Z,70.24
2019-02-04T07:47:48.157Z,70.18
2019-02-04T07:50:16.633Z,67.71
2019-02-04T07:52:45.090Z,60.45
2019-02-04T07:55:13.467Z,55.04
2019-02-04T07:57:42.023Z,49.46
2019-02-04T08:00:18.930Z,47.39
2019-02-04T08:02:47.297Z,43.75
2019-02-04T08:05:15.735Z,40.69
2019-02-04T08:07:44.073Z,39.20
2019-02-04T08:10:14.428Z,37.65
2019-02-04T08:12:42.825Z,37.60
2019-02-04T08:15:14.266Z,36.80
2019-02-04T08:17:42.751Z,33.80
2019-02-04T08:20:11.313Z,33.83
2019-02-04T08:22:39.689Z,33.81
2019-02-04T08:25:15.917Z,31.78
2019-02-04T08:27:44.308Z,32.77
2019-02-04T08:30:24.628Z,32.77
2019-02-04T08:32:53.157Z,31.21
2019-02-04T08:35:21.697Z,30.62
2019-02-04T08:37:50.082Z,29.43
2019-02-04T08:40:19.337Z,29.59
2019-02-04T08:42:47.796Z,29.01
2019-02-04T08:45:16.556Z,27.72
2019-02-04T08:47:44.949Z,28.41
2019-02-04T08:50:15.980Z,29.47
2019-02-04T08:52:44.287Z,31.25
2019-02-04T08:55:12.928Z,37.34
2019-02-04T08:57:41.394Z,40.06
2019-02-04T09:00:21.378Z,45.49
2019-02-04T09:02:49.795Z,46.57
2019-02-04T09:05:18.848Z,49.53
2019-02-04T09:07:47.328Z,49.53
2019-02-04T09:10:24.605Z,51.72
2019-02-04T09:12:53.275Z,52.28
2019-02-04T09:15:21.828Z,52.74
2019-02-04T09:17:50.248Z,53.08
2019-02-04T09:20:19.112Z,55.12
2019-02-04T09:22:47.782Z,55.12
2019-02-04T09:25:20.996Z,55.60
2019-02-04T09:27:49.823Z,54.88
2019-02-04T09:30:20.288Z,55.56
2019-02-04T09:32:48.785Z,56.24
2019-02-04T09:35:19.155Z,56.59
2019-02-04T09:37:47.823Z,57.96
2019-02-04T09:40:19.471Z,57.34
2019-02-04T09:42:48.049Z,57.30
2019-02-04T09:45:17.204Z,58.74
2019-02-04T09:47:45.811Z,57.30
2019-02-04T09:50:21.722Z,57.12
2019-02-04T09:52:49.995Z,57.98
2019-02-04T09:55:21.427Z,56.98
2019-02-04T09:57:49.871Z,58.33
2019-02-04T10:00:21.038Z,58.36
2019-02-04T10:02:49.720Z,58.26
2019-02-04T10:05:19.332Z,58.54
2019-02-04T10:07:47.717Z,59.26
2019-02-04T10:10:18.916Z,59.60
2019-02-04T10:12:47.232Z,60.35
2019-02-04T10:15:18.694Z,59.22
2019-02-04T10:17:47.064Z,59.73
2019-02-04T10:20:17.199Z,60.36
2019-02-04T10:22:46.161Z,61.07
2019-02-04T10:25:20.758Z,60.72
2019-02-04T10:27:49.162Z,61.17
2019-02-04T10:30:20.268Z,60.55
2019-02-04T10:32:48.749Z,60.62
2019-02-04T10:35:18.284Z,60.86
2019-02-04T10:37:48.203Z,61.89
2019-02-04T10:40:24.383Z,60.02
2019-02-04T10:42:52.771Z,59.44
2019-02-04T10:45:21.620Z,58.64
2019-02-04T10:47:50.547Z,57.71
2019-02-04T10:50:27.463Z,58.68
2019-02-04T10:52:56.043Z,57.60
2019-02-04T10:55:24.472Z,57.28
2019-02-04T10:57:52.841Z,55.78
2019-02-04T11:00:27.195Z,55.86
2019-02-04T11:02:55.943Z,57.22
2019-02-04T11:05:28.970Z,56.85
2019-02-04T11:07:57.450Z,57.47
2019-02-04T11:10:28.237Z,57.60
2019-02-04T11:12:56.909Z,58.09
2019-02-04T11:15:25.778Z,57.87
2019-02-04T11:17:54.415Z,57.62
2019-02-04T11:20:28.286Z,57.67
2019-02-04T11:22:56.933Z,57.31
2019-02-04T11:25:25.387Z,55.26
2019-02-04T11:27:53.929Z,51.25
2019-02-04T11:30:28.388Z,47.62
2019-02-04T11:32:56.770Z,41.99
2019-02-04T11:35:25.383Z,41.74
2019-02-04T11:37:53.797Z,43.53
2019-02-04T11:40:27.649Z,40.33
2019-02-04T11:42:56.071Z,36.53
2019-02-04T11:45:24.677Z,36.53
2019-02-04T11:47:53.312Z,36.29
2019-02-04T11:50:21.716Z,36.96
2019-02-04T11:52:50.093Z,35.66
2019-02-04T11:55:18.897Z,33.67
2019-02-04T11:57:47.373Z,34.69
2019-02-04T12:00:21.991Z,35.95
2019-02-04T12:02:50.832Z,33.97
2019-02-04T12:05:21.096Z,33.36
2019-02-04T12:07:49.542Z,33.80
2019-02-04T12:10:24.826Z,31.95
2019-02-04T12:12:53.562Z,31.52
2019-02-04T12:15:23.299Z,31.36
2019-02-04T12:17:52.333Z,30.77
2019-02-04T12:20:20.690Z,30.41
2019-02-04T12:22:49.725Z,30.15
2019-02-04T12:25:28.550Z,30.56
2019-02-04T12:27:57.648Z,30.27
2019-02-04T12:30:34.280Z,29.73
2019-02-04T12:33:04.147Z,28.01
2019-02-04T12:35:32.533Z,29.70
2019-02-04T12:38:00.915Z,29.37
2019-02-04T12:40:29.321Z,31.67
2019-02-04T12:42:57.720Z,31.37
2019-02-04T12:45:31.784Z,32.55
2019-02-04T12:48:00.966Z,32.45
2019-02-04T12:50:31.273Z,31.88
2019-02-04T12:52:59.722Z,31.50
2019-02-04T12:55:32.990Z,31.20
2019-02-04T12:58:01.295Z,31.96
2019-02-04T13:00:31.820Z,33.13
2019-02-04T13:03:00.374Z,32.04
2019-02-04T13:05:37.716Z,32.32
2019-02-04T13:08:08.262Z,31.87
2019-02-04T13:10:36.769Z,31.39
2019-02-04T13:13:07.906Z,31.74
2019-02-04T13:15:36.302Z,32.01
2019-02-04T13:18:05.152Z,32.81
2019-02-04T13:20:33.779Z,33.29
2019-02-04T13:23:02.382Z,34.67
2019-02-04T13:25:31.208Z,35.05
2019-02-04T13:27:59.657Z,35.80
2019-02-04T13:30:29.883Z,33.51
2019-02-04T13:32:58.494Z,33.96
2019-02-04T13:35:26.857Z,33.12
2019-02-04T13:37:55.680Z,33.95
2019-02-04T13:40:26.116Z,34.28
2019-02-04T13:42:54.568Z,32.86
2019-02-04T13:45:23.073Z,32.88
2019-02-04T13:47:52.833Z,34.69
2019-02-04T13:50:24.951Z,34.54
2019-02-04T13:52:54.299Z,34.51
2019-02-04T13:55:31.021Z,33.76
2019-02-04T13:57:59.455Z,33.80
2019-02-04T14:00:28.092Z,34.72
2019-02-04T14:02:59.500Z,33.62
2019-02-04T14:05:27.516Z,34.62
2019-02-04T14:07:56.058Z,35.52
2019-02-04T14:10:27.021Z,35.32
2019-02-04T14:12:55.471Z,37.40
2019-02-04T14:15:24.115Z,37.40
2019-02-04T14:17:52.572Z,38.47
2019-02-04T14:20:24.067Z,37.32
2019-02-04T14:22:53.446Z,36.87
2019-02-04T14:25:22.109Z,36.87
2019-02-04T14:27:50.691Z,37.51
2019-02-04T14:30:22.181Z,38.24
2019-02-04T14:32:51.212Z,38.98
2019-02-04T14:35:19.594Z,39.59
2019-02-04T14:37:48.162Z,39.59
2019-02-04T14:40:18.866Z,38.07
2019-02-04T14:42:49.800Z,39.00
2019-02-04T14:45:27.522Z,39.02
2019-02-04T14:48:04.240Z,39.90
2019-02-04T14:50:34.879Z,40.04
2019-02-04T14:53:30.770Z,40.31
2019-02-04T14:56:14.045Z,41.68
2019-02-04T14:59:00.270Z,42.00
2019-02-04T15:01:40.649Z,40.88
2019-02-04T15:04:26.596Z,41.61
2019-02-04T15:07:21.176Z,41.25
2019-02-04T15:10:04.556Z,41.65
2019-02-04T15:12:36.042Z,41.63
2019-02-04T15:15:10.366Z,42.00
2019-02-04T15:17:42.200Z,41.73
2019-02-04T15:20:47.168Z,42.67
2019-02-04T15:23:18.658Z,42.31
2019-02-04T15:26:05.313Z,42.91
2019-02-04T15:28:42.595Z,43.04
2019-02-04T15:31:35.150Z,43.81
2019-02-04T15:34:23.214Z,45.17
2019-02-04T15:36:57.910Z,46.40
2019-02-04T15:39:38.226Z,46.13
2019-02-04T15:42:32.502Z,46.46
2019-02-04T15:45:06.990Z,47.46
2019-02-04T15:47:38.474Z,48.14
2019-02-04T15:50:34.145Z,48.34
2019-02-04T15:53:02.566Z,49.34
2019-02-04T15:55:31.113Z,49.87
2019-02-04T15:57:59.525Z,49.63
2019-02-04T16:00:28.034Z,49.97
2019-02-04T16:02:56.436Z,50.17
2019-02-04T16:05:25.007Z,49.93
2019-02-04T16:07:53.373Z,49.87
2019-02-04T16:10:21.774Z,50.08
2019-02-04T16:12:50.225Z,50.36
2019-02-04T16:15:18.710Z,51.23
2019-02-04T16:17:47.207Z,51.60
2019-02-04T16:20:21.352Z,52.24
2019-02-04T16:22:58.072Z,52.90
2019-02-04T16:25:19.922Z,53.39
2019-02-04T16:27:48.372Z,53.78
2019-02-04T16:30:19.051Z,53.93
2019-02-04T16:32:47.431Z,54.29
2019-02-04T16:35:19.746Z,54.43
2019-02-04T16:37:48.883Z,55.09
2019-02-04T16:40:19.358Z,55.39
2019-02-04T16:42:47.801Z,55.80
2019-02-04T16:45:22.255Z,55.75
2019-02-04T16:47:51.092Z,55.65
2019-02-04T16:50:24.453Z,55.77
2019-02-04T16:52:52.836Z,56.24
2019-02-04T16:55:21.334Z,56.45
2019-02-04T16:57:49.637Z,56.44
2019-02-04T17:00:21.206Z,56.65
2019-02-04T17:02:49.926Z,56.48
2019-02-04T17:05:19.340Z,56.46
2019-02-04T17:07:47.722Z,56.48
2019-02-04T17:10:18.907Z,56.91
2019-02-04T17:12:47.393Z,57.02
2019-02-04T17:15:15.832Z,57.14
2019-02-04T17:17:44.628Z,57.67
2019-02-04T17:20:21.948Z,57.92
2019-02-04T17:22:50.382Z,58.07
2019-02-04T17:25:18.758Z,58.57
2019-02-04T17:27:47.264Z,58.22
2019-02-04T17:30:18.593Z,58.02
2019-02-04T17:32:47.018Z,57.85
2019-02-04T17:35:15.380Z,57.82
2019-02-04T17:37:43.774Z,57.66
2019-02-04T17:40:17.270Z,57.50
2019-02-04T17:42:45.840Z,57.71
2019-02-04T17:45:16.580Z,57.26
2019-02-04T17:47:45.879Z,57.30
2019-02-04T17:50:19.256Z,57.29
2019-02-04T17:52:47.727Z,57.50
2019-02-04T17:55:18.396Z,57.56
2019-02-04T17:57:46.799Z,58.44
2019-02-04T18:00:38.464Z,58.92
2019-02-04T18:03:07.219Z,58.79
2019-02-04T18:05:35.648Z,58.63
2019-02-04T18:08:04.390Z,58.76
2019-02-04T18:10:33.195Z,59.07
2019-02-04T18:13:01.604Z,58.64
2019-02-04T18:15:30.159Z,58.46
2019-02-04T18:17:58.655Z,58.64
2019-02-04T18:20:27.056Z,58.88
2019-02-04T18:22:55.360Z,58.82
2019-02-04T18:25:24.026Z,58.87
2019-02-04T18:27:52.321Z,58.57
2019-02-04T18:30:22.756Z,58.31
2019-02-04T18:32:51.321Z,58.20
2019-02-04T18:35:19.774Z,58.04
2019-02-04T18:37:48.441Z,58.24
2019-02-04T18:40:21.987Z,58.30
2019-02-04T18:42:50.856Z,58.75
2019-02-04T18:45:25.404Z,58.67
2019-02-04T18:47:53.769Z,58.86
2019-02-04T18:50:23.755Z,58.99
2019-02-04T18:52:52.397Z,59.24
2019-02-04T18:55:23.470Z,59.63
2019-02-04T18:57:52.289Z,59.59
2019-02-04T19:00:23.097Z,59.24
2019-02-04T19:02:51.656Z,59.40
2019-02-04T19:05:20.826Z,59.47
2019-02-04T19:07:49.316Z,59.45
2019-02-04T19:10:19.649Z,59.64
2019-02-04T19:12:48.183Z,59.91
2019-02-04T19:15:19.447Z,60.00
2019-02-04T19:17:48.414Z,60.19
2019-02-04T19:20:21.935Z,59.97
2019-02-04T19:22:50.323Z,59.43
2019-02-04T19:25:21.168Z,59.43
2019-02-04T19:27:50.680Z,59.67
2019-02-04T19:30:22.156Z,59.33
2019-02-04T19:32:50.707Z,58.71
2019-02-04T19:35:19.089Z,58.92
2019-02-04T19:37:47.545Z,58.97
2019-02-04T19:40:17.499Z,59.72
2019-02-04T19:42:45.938Z,60.59
2019-02-04T19:45:17.390Z,59.98
2019-02-04T19:47:45.927Z,59.80
2019-02-04T19:50:32.308Z,60.33
2019-02-04T19:53:00.909Z,60.16
2019-02-04T19:55:29.337Z,59.77
2019-02-04T19:57:57.949Z,59.75
2019-02-04T20:00:26.714Z,60.38
2019-02-04T20:02:55.256Z,60.50
2019-02-04T20:05:28.476Z,60.51
2019-02-04T20:07:57.292Z,60.89
2019-02-04T20:10:31.532Z,60.93
2019-02-04T20:12:59.933Z,60.72
2019-02-04T20:15:30.085Z,60.44
2019-02-04T20:17:58.909Z,60.70
2019-02-04T20:20:28.062Z,60.56
2019-02-04T20:22:56.838Z,60.95
2019-02-04T20:25:31.265Z,60.91
2019-02-04T20:27:59.726Z,60.63
2019-02-04T20:30:45.489Z,60.76
2019-02-04T20:33:05.370Z,61.54
2019-02-04T20:35:33.878Z,61.04
2019-02-04T20:38:02.308Z,61.13
2019-02-04T20:40:30.983Z,61.00
2019-02-04T20:42:59.367Z,61.09
2019-02-04T20:45:28.760Z,61.08
2019-02-04T20:47:57.227Z,61.38
2019-02-04T20:50:28.382Z,60.78
2019-02-04T20:52:56.866Z,60.54
2019-02-04T20:55:25.194Z,60.51
2019-02-04T20:57:53.584Z,60.69
2019-02-04T21:00:24.924Z,60.77
2019-02-04T21:02:53.310Z,61.77
2019-02-04T21:05:21.774Z,61.93
2019-02-04T21:07:50.394Z,61.42
2019-02-04T21:10:21.112Z,61.04
2019-02-04T21:12:49.446Z,60.78
2019-02-04T21:15:19.923Z,60.64
2019-02-04T21:17:48.305Z,60.40
2019-02-04T21:20:21.529Z,60.22
2019-02-04T21:22:49.908Z,60.15
2019-02-04T21:25:18.471Z,60.29
2019-02-04T21:27:46.844Z,60.26
2019-02-04T21:30:20.639Z,60.04
2019-02-04T21:32:49.626Z,59.78
2019-02-04T21:35:18.171Z,60.22
2019-02-04T21:37:46.611Z,60.08
2019-02-04T21:40:17.372Z,60.35
2019-02-04T21:42:46.198Z,61.50
2019-02-04T21:45:19.487Z,61.36
2019-02-04T21:47:47.944Z,61.58
2019-02-04T21:50:18.591Z,61.97
2019-02-04T21:52:46.970Z,62.34
2019-02-04T21:55:15.610Z,62.40
2019-02-04T21:57:44.598Z,62.35
2019-02-04T22:00:16.172Z,62.51
2019-02-04T22:02:44.504Z,62.66
2019-02-04T22:05:15.355Z,62.78
2019-02-04T22:07:43.863Z,62.38
2019-02-04T22:10:20.696Z,62.37
2019-02-04T22:12:49.092Z,61.65
2019-02-04T22:15:17.474Z,61.83
2019-02-04T22:17:45.941Z,62.17
2019-02-04T22:20:21.132Z,62.05
2019-02-04T22:22:49.543Z,62.70
2019-02-04T22:25:22.321Z,62.85
2019-02-04T22:27:50.647Z,63.45
2019-02-04T22:30:21.052Z,63.58
2019-02-04T22:32:49.435Z,63.68
2019-02-04T22:35:17.973Z,63.18
2019-02-04T22:37:46.410Z,62.95
2019-02-04T22:40:17.819Z,62.78
2019-02-04T22:42:46.143Z,63.13
2019-02-04T22:45:16.423Z,63.34
2019-02-04T22:47:45.100Z,64.26
2019-02-04T22:50:18.949Z,64.29
2019-02-04T22:52:47.455Z,64.60
2019-02-04T22:55:16.287Z,64.24
2019-02-04T22:57:44.670Z,64.19
2019-02-04T23:00:41.685Z,64.62
2019-02-04T23:03:10.610Z,65.36
2019-02-04T23:05:39.045Z,65.48
2019-02-04T23:08:07.490Z,65.08
2019-02-04T23:10:36.226Z,64.67
2019-02-04T23:13:05.772Z,65.16
2019-02-04T23:15:34.237Z,65.60
2019-02-04T23:18:02.677Z,65.70
2019-02-04T23:20:31.344Z,65.44
2019-02-04T23:22:59.746Z,65.39
2019-02-04T23:25:28.075Z,65.08
2019-02-04T23:27:56.454Z,64.18
2019-02-04T23:30:24.893Z,64.24
2019-02-04T23:32:53.256Z,63.68
2019-02-04T23:35:23.785Z,63.90
2019-02-04T23:37:52.100Z,63.84
2019-02-04T23:40:20.514Z,64.18
2019-02-04T23:42:48.827Z,64.81
2019-02-04T23:45:17.276Z,64.78
2019-02-04T23:47:45.575Z,64.48
2019-02-04T23:50:16.310Z,64.62
2019-02-04T23:52:44.753Z,65.01
2019-02-04T23:55:14.199Z,65.00
2019-02-04T23:57:42.769Z,65.36
